createdAt,value
2023-03-11T00:01:14.537Z,99826.88
2023-03-11T00:06:11.047Z,99849.88
2023-03-11T00:11:07.646Z,99856.84
2023-03-11T00:16:04.419Z,99866.31
2023-03-11T00:21:01.193Z,99877.38
2023-03-11T00:25:59.605Z,99890.41
2023-03-11T00:30:56.125Z,99906.00
2023-03-11T00:35:52.653Z,99911.09
2023-03-11T00:40:49.748Z,99913.72
2023-03-11T00:45:46.108Z,99923.50
2023-03-11T00:50:42.980Z,99929.69
2023-03-11T00:55:39.481Z,99935.72
2023-03-11T01:00:36.021Z,99951.25
2023-03-11T01:05:33.596Z,99963.34
2023-03-11T01:10:35.360Z,99972.84
2023-03-11T01:15:37.068Z,99971.84
2023-03-11T01:20:34.448Z,99980.50
2023-03-11T01:25:31.115Z,99989.94
2023-03-11T01:30:28.691Z,99994.38
2023-03-11T01:35:26.852Z,99995.50
2023-03-11T01:40:30.370Z,100012.09
2023-03-11T01:45:47.870Z,100025.81
2023-03-11T01:50:49.779Z,100014.63
2023-03-11T01:55:46.650Z,100023.47
2023-03-11T02:00:43.713Z,100026.16
2023-03-11T02:05:40.598Z,100043.72
2023-03-11T02:10:39.170Z,100043.84
2023-03-11T02:15:35.642Z,100052.59
2023-03-11T02:20:49.363Z,100071.69
2023-03-11T02:26:02.479Z,100078.84
2023-03-11T02:30:59.154Z,100095.22
2023-03-11T02:35:57.469Z,100091.88
2023-03-11T02:40:59.439Z,100113.81
2023-03-11T02:45:56.652Z,100127.91
2023-03-11T02:50:53.410Z,100122.06
2023-03-11T02:55:51.086Z,100140.38
2023-03-11T03:00:47.883Z,100138.00
2023-03-11T03:05:44.549Z,100128.16
2023-03-11T03:10:41.274Z,100132.00
2023-03-11T03:15:40.263Z,100145.72
2023-03-11T03:20:36.900Z,100184.50
2023-03-11T03:25:33.532Z,100169.59
2023-03-11T03:30:34.976Z,100174.09
2023-03-11T03:35:38.053Z,100202.31
2023-03-11T03:40:54.141Z,100184.72
2023-03-11T03:46:07.905Z,100198.34
2023-03-11T03:51:16.503Z,100214.78
2023-03-11T03:56:21.925Z,100224.44
2023-03-11T04:07:03.240Z,100244.69
2023-03-11T04:12:11.009Z,100237.81
2023-03-11T04:17:07.385Z,100273.47
2023-03-11T04:22:19.790Z,100241.19
2023-03-11T04:27:36.760Z,100248.78
2023-03-11T04:32:48.677Z,100247.16
2023-03-11T04:43:26.685Z,100287.38
2023-03-11T04:48:57.364Z,100298.13
2023-03-11T04:54:13.225Z,100274.63
2023-03-11T05:05:05.766Z,100283.97
2023-03-11T05:10:19.020Z,100302.22
2023-03-11T05:15:32.904Z,100327.53
2023-03-11T05:32:10.907Z,100346.78
2023-03-11T05:43:28.661Z,100362.91
2023-03-11T05:54:37.758Z,100409.00
2023-03-11T05:59:40.742Z,100415.47
2023-03-11T06:28:31.879Z,100451.66
2023-03-11T06:33:31.537Z,100483.53
2023-03-11T06:38:29.104Z,100466.22
2023-03-11T06:54:06.810Z,100498.56
2023-03-11T06:59:03.297Z,100503.75
2023-03-11T07:03:59.906Z,100504.63
2023-03-11T07:08:59.455Z,100500.16
2023-03-11T07:13:56.191Z,100525.84
2023-03-11T07:18:54.822Z,100517.34
2023-03-11T07:23:55.669Z,100523.41
2023-03-11T07:28:54.122Z,100553.38
2023-03-11T07:33:50.721Z,100550.56
2023-03-11T07:38:47.328Z,100571.44
2023-03-11T07:43:44.096Z,100577.28
2023-03-11T07:48:42.709Z,100587.53
2023-03-11T07:53:42.481Z,100602.09
2023-03-11T07:58:39.204Z,100610.63
2023-03-11T08:03:35.723Z,100611.47
2023-03-11T08:08:32.242Z,100613.06
2023-03-11T08:13:28.650Z,100623.47
2023-03-11T08:18:25.136Z,100643.16
2023-03-11T08:23:21.605Z,100645.94
2023-03-11T08:28:18.125Z,100662.97
2023-03-11T08:33:14.576Z,100668.09
2023-03-11T08:38:10.941Z,100663.75
2023-03-11T08:43:07.847Z,100677.44
2023-03-11T08:48:04.413Z,100683.47
2023-03-11T08:53:03.107Z,100692.09
2023-03-11T08:57:59.539Z,100685.91
2023-03-11T09:02:56.184Z,100689.38
2023-03-11T09:07:52.690Z,100703.03
2023-03-11T09:12:49.162Z,100698.47
2023-03-11T09:17:45.714Z,100714.81
2023-03-11T09:22:42.148Z,100698.38
2023-03-11T09:27:38.837Z,100713.94
2023-03-11T09:32:35.336Z,100720.63
2023-03-11T09:37:32.065Z,100726.75
2023-03-11T09:42:36.909Z,100737.88
2023-03-11T09:47:51.386Z,100742.09
2023-03-11T09:53:04.335Z,100735.91
2023-03-11T09:58:04.752Z,100733.28
2023-03-11T10:03:02.266Z,100743.66
2023-03-11T10:08:34.498Z,100749.41
2023-03-11T10:13:37.616Z,100761.56
2023-03-11T10:19:16.670Z,100758.84
2023-03-11T10:24:24.526Z,100762.78
2023-03-11T10:29:26.145Z,100748.44
2023-03-11T10:34:32.629Z,100753.56
2023-03-11T10:39:30.182Z,100761.13
2023-03-11T10:44:33.930Z,100754.84
2023-03-11T10:49:30.643Z,100760.75
2023-03-11T10:54:31.002Z,100764.13
2023-03-11T10:59:47.786Z,100772.56
2023-03-11T11:04:44.342Z,100769.00
2023-03-11T11:09:40.927Z,100762.56
2023-03-11T11:14:51.743Z,100767.28
2023-03-11T11:19:48.923Z,100755.69
2023-03-11T11:24:46.703Z,100756.88
2023-03-11T11:29:43.490Z,100765.28
2023-03-11T11:34:39.924Z,100761.41
2023-03-11T11:39:44.147Z,100753.19
2023-03-11T11:44:43.028Z,100749.47
2023-03-11T11:49:48.702Z,100757.78
2023-03-11T11:55:09.778Z,100740.78
2023-03-11T12:00:18.855Z,100739.56
2023-03-11T12:05:26.211Z,100737.47
2023-03-11T12:10:37.387Z,100732.72
2023-03-11T12:15:42.723Z,100733.28
2023-03-11T12:20:45.797Z,100740.09
2023-03-11T12:26:06.837Z,100723.91
2023-03-11T12:31:06.699Z,100723.03
2023-03-11T12:36:04.585Z,100723.44
2023-03-11T12:41:07.123Z,100722.53
2023-03-11T12:46:11.180Z,100718.41
2023-03-11T12:51:27.658Z,100733.09
2023-03-11T12:56:30.613Z,100728.31
2023-03-11T13:01:31.240Z,100736.78
2023-03-11T13:07:01.491Z,100730.28
2023-03-11T13:11:57.952Z,100729.28
2023-03-11T13:16:54.618Z,100729.22
2023-03-11T13:21:51.089Z,100737.13
2023-03-11T13:26:59.516Z,100731.84
2023-03-11T13:32:14.636Z,100735.56
2023-03-11T13:37:50.587Z,100732.88
2023-03-11T13:42:51.926Z,100734.22
2023-03-11T13:47:49.591Z,100736.50
2023-03-11T13:52:53.571Z,100734.72
2023-03-11T13:57:55.118Z,100738.69
2023-03-11T14:02:55.057Z,100734.81
2023-03-11T14:07:54.316Z,100749.44
2023-03-11T14:23:57.003Z,100750.31
2023-03-11T14:29:21.100Z,100745.81
2023-03-11T14:34:27.808Z,100736.88
2023-03-11T14:39:29.243Z,100759.09
2023-03-11T14:44:30.871Z,100749.94
2023-03-11T14:54:29.816Z,100737.50
2023-03-11T14:59:46.724Z,100745.81
2023-03-11T15:10:29.363Z,100740.81
2023-03-11T15:15:33.631Z,100731.56
2023-03-11T15:20:44.150Z,100731.50
2023-03-11T15:25:51.558Z,100738.63
2023-03-11T15:31:00.146Z,100755.66
2023-03-11T15:36:23.006Z,100718.81
2023-03-11T15:41:25.961Z,100721.19
2023-03-11T15:46:22.555Z,100719.38
2023-03-11T15:51:19.956Z,100759.00
2023-03-11T15:56:23.738Z,100747.47
2023-03-11T16:01:31.675Z,100770.41
2023-03-11T16:06:34.250Z,100802.13
2023-03-11T16:11:32.720Z,100785.88
2023-03-11T16:16:29.831Z,100794.75
2023-03-11T16:21:33.407Z,100774.81
2023-03-11T16:26:30.250Z,100782.97
2023-03-11T16:31:28.071Z,100782.75
2023-03-11T16:36:25.549Z,100805.38
2023-03-11T16:41:22.146Z,100812.72
2023-03-11T16:46:18.638Z,100820.94
2023-03-11T16:51:15.140Z,100830.97
2023-03-11T16:56:11.640Z,100837.41
2023-03-11T17:01:08.132Z,100829.84
2023-03-11T17:06:04.982Z,100838.91
2023-03-11T17:11:01.660Z,100837.28
2023-03-11T17:16:02.052Z,100835.88
2023-03-11T17:20:58.607Z,100841.22
2023-03-11T17:25:55.091Z,100847.50
2023-03-11T17:30:51.584Z,100852.06
2023-03-11T17:35:48.088Z,100851.59
2023-03-11T17:40:44.563Z,100858.84
2023-03-11T17:45:41.059Z,100859.16
2023-03-11T17:50:38.721Z,100854.16
2023-03-11T17:55:39.378Z,100871.94
2023-03-11T18:00:36.007Z,100856.56
2023-03-11T18:05:32.443Z,100861.84
2023-03-11T18:10:28.880Z,100868.03
2023-03-11T18:15:25.435Z,100870.97
2023-03-11T18:20:21.902Z,100852.75
2023-03-11T18:25:18.466Z,100873.78
2023-03-11T18:30:14.942Z,100874.81
2023-03-11T18:35:11.469Z,100881.09
2023-03-11T18:40:08.608Z,100877.69
2023-03-11T18:45:05.868Z,100865.59
2023-03-11T18:50:02.421Z,100876.03
2023-03-11T18:54:59.104Z,100877.06
2023-03-11T18:59:55.587Z,100880.69
2023-03-11T19:04:52.194Z,100865.22
2023-03-11T19:09:49.318Z,100878.28
2023-03-11T19:14:45.702Z,100886.34
2023-03-11T19:19:42.272Z,100900.38
2023-03-11T19:24:38.891Z,100885.59
2023-03-11T19:29:35.482Z,100887.25
2023-03-11T19:34:32.183Z,100884.63
2023-03-11T19:39:28.934Z,100896.25
2023-03-11T19:44:32.737Z,100892.78
2023-03-11T19:49:36.776Z,100895.50
2023-03-11T19:54:33.562Z,100896.50
2023-03-11T19:59:38.329Z,100894.81
2023-03-11T20:04:37.753Z,100908.56
2023-03-11T20:09:40.556Z,100911.78
2023-03-11T20:14:42.427Z,100900.38
2023-03-11T20:19:45.212Z,100932.84
2023-03-11T20:24:44.821Z,100928.91
2023-03-11T20:29:41.499Z,100920.22
2023-03-11T20:34:38.293Z,100931.16
2023-03-11T20:39:35.153Z,100928.44
2023-03-11T20:44:32.295Z,100931.06
2023-03-11T20:49:29.358Z,100933.69
2023-03-11T20:54:26.199Z,100941.63
2023-03-11T20:59:23.038Z,100941.56
2023-03-11T21:04:24.693Z,100934.72
2023-03-11T21:09:24.220Z,100939.91
2023-03-11T21:14:20.906Z,100939.84
2023-03-11T21:19:17.792Z,100955.59
2023-03-11T21:24:17.921Z,100960.75
2023-03-11T21:29:14.539Z,100971.06
2023-03-11T21:34:11.898Z,100968.41
2023-03-11T21:39:08.661Z,100968.53
2023-03-11T21:44:06.096Z,100970.44
2023-03-11T21:49:02.678Z,100964.50
2023-03-11T21:53:59.381Z,100971.38
2023-03-11T21:58:56.166Z,100988.72
2023-03-11T22:03:53.001Z,100984.31
2023-03-11T22:08:50.029Z,100982.38
2023-03-11T22:13:47.810Z,100977.22
2023-03-11T22:18:45.215Z,100988.44
2023-03-11T22:23:42.437Z,100980.59
2023-03-11T22:28:38.887Z,100984.41
2023-03-11T22:33:35.363Z,100977.50
2023-03-11T22:38:32.497Z,100969.88
2023-03-11T22:43:28.976Z,100976.31
2023-03-11T22:48:25.491Z,100971.41
2023-03-11T22:53:23.189Z,100979.50
2023-03-11T22:58:19.854Z,100987.53
2023-03-11T23:03:16.410Z,100990.41
2023-03-11T23:08:14.880Z,101001.97
2023-03-11T23:13:11.866Z,100997.81
2023-03-11T23:18:08.375Z,101001.41
2023-03-11T23:23:05.216Z,101010.19
2023-03-11T23:28:03.380Z,101013.75
2023-03-11T23:33:02.628Z,101018.28
2023-03-11T23:37:59.163Z,101033.28
2023-03-11T23:42:57.680Z,101042.16
2023-03-11T23:47:54.171Z,101045.75
2023-03-11T23:52:50.641Z,101042.59
2023-03-11T23:57:47.182Z,101042.59
